sensor_id;sensor_type;location;lat;lon;timestamp;P1;durP1;ratioP1;P2;durP2;ratioP2
53670;SDS011;39571;48.612;8.088;2023-03-01T09:20:04;21.25;;;14.85;;
53670;SDS011;39571;48.612;8.088;2023-03-01T09:22:33;18.05;;;14.23;;
53670;SDS011;39571;48.612;8.088;2023-03-01T09:27:16;20.02;;;14.55;;
53670;SDS011;39571;48.612;8.088;2023-03-01T09:46:48;18.00;;;13.53;;
53670;SDS011;39571;48.612;8.088;2023-03-01T09:49:15;15.57;;;13.07;;
53670;SDS011;39571;48.612;8.088;2023-03-01T09:52:15;17.77;;;14.10;;
53670;SDS011;39571;48.612;8.088;2023-03-01T09:57:06;17.95;;;14.25;;
53670;SDS011;39571;48.612;8.088;2023-03-01T10:02:36;16.90;;;13.75;;
53670;SDS011;39571;48.612;8.088;2023-03-01T10:07:44;16.52;;;14.02;;
53670;SDS011;39571;48.612;8.088;2023-03-01T10:10:39;17.75;;;13.75;;
53670;SDS011;39571;48.612;8.088;2023-03-01T10:13:17;17.83;;;13.57;;
53670;SDS011;39571;48.612;8.088;2023-03-01T10:15:50;17.45;;;14.13;;
53670;SDS011;39571;48.612;8.088;2023-03-01T10:18:31;18.70;;;14.50;;
53670;SDS011;39571;48.612;8.088;2023-03-01T10:20:59;16.27;;;14.13;;
53670;SDS011;39571;48.612;8.088;2023-03-01T10:23:28;16.20;;;13.93;;
53670;SDS011;39571;48.612;8.088;2023-03-01T10:31:37;18.25;;;14.60;;
53670;SDS011;39571;48.612;8.088;2023-03-01T10:34:11;19.27;;;14.50;;
53670;SDS011;39571;48.612;8.088;2023-03-01T10:36:44;18.88;;;14.38;;
53670;SDS011;39571;48.612;8.088;2023-03-01T10:39:16;16.58;;;14.30;;
53670;SDS011;39571;48.612;8.088;2023-03-01T10:41:52;17.58;;;14.25;;
53670;SDS011;39571;48.612;8.088;2023-03-01T10:47:22;18.48;;;14.90;;
53670;SDS011;39571;48.612;8.088;2023-03-01T10:50:09;20.13;;;15.70;;
53670;SDS011;39571;48.612;8.088;2023-03-01T10:53:03;20.80;;;15.82;;
53670;SDS011;39571;48.612;8.088;2023-03-01T10:58:21;21.00;;;16.45;;
53670;SDS011;39571;48.612;8.088;2023-03-01T11:00:48;19.90;;;16.45;;
53670;SDS011;39571;48.612;8.088;2023-03-01T11:03:14;20.88;;;17.02;;
53670;SDS011;39571;48.612;8.088;2023-03-01T11:08:38;24.45;;;18.15;;
53670;SDS011;39571;48.612;8.088;2023-03-01T11:11:13;22.92;;;17.95;;
53670;SDS011;39571;48.612;8.088;2023-03-01T11:13:55;22.88;;;18.77;;
53670;SDS011;39571;48.612;8.088;2023-03-01T11:16:24;22.92;;;18.02;;
53670;SDS011;39571;48.612;8.088;2023-03-01T11:18:55;23.92;;;19.10;;
53670;SDS011;39571;48.612;8.088;2023-03-01T11:21:29;23.77;;;18.65;;
53670;SDS011;39571;48.612;8.088;2023-03-01T11:23:59;23.17;;;18.35;;
53670;SDS011;39571;48.612;8.088;2023-03-01T11:26:26;24.23;;;19.50;;
53670;SDS011;39571;48.612;8.088;2023-03-01T11:28:54;21.80;;;18.23;;
53670;SDS011;39571;48.612;8.088;2023-03-01T11:31:23;23.98;;;19.00;;
53670;SDS011;39571;48.612;8.088;2023-03-01T11:36:53;25.50;;;18.95;;
53670;SDS011;39571;48.612;8.088;2023-03-01T11:42:12;24.52;;;19.20;;
53670;SDS011;39571;48.612;8.088;2023-03-01T11:47:15;25.73;;;19.30;;
53670;SDS011;39571;48.612;8.088;2023-03-01T11:55:21;22.80;;;18.67;;
53670;SDS011;39571;48.612;8.088;2023-03-01T11:58:20;26.10;;;18.10;;
53670;SDS011;39571;48.612;8.088;2023-03-01T12:06:49;21.15;;;17.35;;
53670;SDS011;39571;48.612;8.088;2023-03-01T12:09:30;23.60;;;18.58;;
53670;SDS011;39571;48.612;8.088;2023-03-01T12:17:43;23.13;;;18.92;;
53670;SDS011;39571;48.612;8.088;2023-03-01T12:48:24;23.27;;;18.45;;
53670;SDS011;39571;48.612;8.088;2023-03-01T12:51:05;22.60;;;18.20;;
53670;SDS011;39571;48.612;8.088;2023-03-01T12:53:36;24.48;;;18.40;;
53670;SDS011;39571;48.612;8.088;2023-03-01T12:56:05;24.00;;;18.45;;
53670;SDS011;39571;48.612;8.088;2023-03-01T12:58:36;23.75;;;18.55;;
53670;SDS011;39571;48.612;8.088;2023-03-01T13:11:55;23.27;;;18.42;;
53670;SDS011;39571;48.612;8.088;2023-03-01T13:16:48;22.40;;;18.48;;
53670;SDS011;39571;48.612;8.088;2023-03-01T13:19:21;21.80;;;17.73;;
53670;SDS011;39571;48.612;8.088;2023-03-01T13:21:49;25.60;;;18.00;;
53670;SDS011;39571;48.612;8.088;2023-03-01T13:34:46;20.92;;;17.67;;
53670;SDS011;39571;48.612;8.088;2023-03-01T13:37:20;25.00;;;18.58;;
53670;SDS011;39571;48.612;8.088;2023-03-01T13:39:51;21.58;;;16.92;;
53670;SDS011;39571;48.612;8.088;2023-03-01T13:45:26;23.90;;;17.33;;
53670;SDS011;39571;48.612;8.088;2023-03-01T13:48:11;23.83;;;18.75;;
53670;SDS011;39571;48.612;8.088;2023-03-01T13:50:49;26.45;;;18.42;;
53670;SDS011;39571;48.612;8.088;2023-03-01T13:53:18;20.50;;;17.02;;
53670;SDS011;39571;48.612;8.088;2023-03-01T13:56:33;22.38;;;17.65;;
53670;SDS011;39571;48.612;8.088;2023-03-01T13:58:46;24.23;;;17.77;;
53670;SDS011;39571;48.612;8.088;2023-03-01T14:01:36;22.17;;;16.95;;
53670;SDS011;39571;48.612;8.088;2023-03-01T14:04:19;22.52;;;17.30;;
53670;SDS011;39571;48.612;8.088;2023-03-01T14:06:45;22.30;;;17.67;;
53670;SDS011;39571;48.612;8.088;2023-03-01T14:09:17;21.55;;;17.38;;
53670;SDS011;39571;48.612;8.088;2023-03-01T14:19:32;21.38;;;16.98;;
53670;SDS011;39571;48.612;8.088;2023-03-01T14:22:20;22.70;;;17.45;;
53670;SDS011;39571;48.612;8.088;2023-03-01T14:24:48;23.13;;;18.08;;
53670;SDS011;39571;48.612;8.088;2023-03-01T14:27:15;22.90;;;18.17;;
53670;SDS011;39571;48.612;8.088;2023-03-01T14:29:41;23.70;;;19.02;;
53670;SDS011;39571;48.612;8.088;2023-03-01T14:32:11;24.50;;;18.65;;
53670;SDS011;39571;48.612;8.088;2023-03-01T14:34:49;23.30;;;18.45;;
53670;SDS011;39571;48.612;8.088;2023-03-01T14:39:48;22.75;;;18.58;;
53670;SDS011;39571;48.612;8.088;2023-03-01T14:42:14;22.67;;;17.58;;
53670;SDS011;39571;48.612;8.088;2023-03-01T14:44:41;21.58;;;18.10;;
53670;SDS011;39571;48.612;8.088;2023-03-01T14:47:11;25.40;;;18.48;;
53670;SDS011;39571;48.612;8.088;2023-03-01T14:49:39;21.90;;;17.48;;
53670;SDS011;39571;48.612;8.088;2023-03-01T14:52:17;25.15;;;17.92;;
53670;SDS011;39571;48.612;8.088;2023-03-01T14:54:49;22.92;;;17.88;;
53670;SDS011;39571;48.612;8.088;2023-03-01T14:59:49;21.70;;;18.02;;
53670;SDS011;39571;48.612;8.088;2023-03-01T15:02:19;23.10;;;17.83;;
53670;SDS011;39571;48.612;8.088;2023-03-01T15:04:48;21.13;;;17.35;;
53670;SDS011;39571;48.612;8.088;2023-03-01T15:07:16;22.10;;;18.10;;
53670;SDS011;39571;48.612;8.088;2023-03-01T15:09:42;22.80;;;17.67;;
53670;SDS011;39571;48.612;8.088;2023-03-01T15:14:52;23.92;;;19.30;;
53670;SDS011;39571;48.612;8.088;2023-03-01T15:17:28;22.92;;;18.15;;
53670;SDS011;39571;48.612;8.088;2023-03-01T15:19:55;22.40;;;17.77;;
53670;SDS011;39571;48.612;8.088;2023-03-01T15:22:21;21.55;;;17.65;;
53670;SDS011;39571;48.612;8.088;2023-03-01T15:24:48;22.42;;;17.83;;
53670;SDS011;39571;48.612;8.088;2023-03-01T15:27:15;22.02;;;18.17;;
53670;SDS011;39571;48.612;8.088;2023-03-01T15:29:47;22.67;;;17.92;;
53670;SDS011;39571;48.612;8.088;2023-03-01T15:34:51;23.67;;;18.52;;
53670;SDS011;39571;48.612;8.088;2023-03-01T15:37:59;23.83;;;18.88;;
53670;SDS011;39571;48.612;8.088;2023-03-01T15:40:19;23.42;;;17.95;;
53670;SDS011;39571;48.612;8.088;2023-03-01T15:42:49;22.33;;;17.83;;
53670;SDS011;39571;48.612;8.088;2023-03-01T15:47:48;22.23;;;17.42;;
53670;SDS011;39571;48.612;8.088;2023-03-01T15:50:20;21.15;;;17.92;;
53670;SDS011;39571;48.612;8.088;2023-03-01T15:52:48;23.80;;;19.00;;
53670;SDS011;39571;48.612;8.088;2023-03-01T15:55:21;21.95;;;17.67;;
53670;SDS011;39571;48.612;8.088;2023-03-01T15:58:00;21.33;;;17.50;;
53670;SDS011;39571;48.612;8.088;2023-03-01T16:00:28;23.23;;;18.23;;
53670;SDS011;39571;48.612;8.088;2023-03-01T16:02:54;22.88;;;18.00;;
53670;SDS011;39571;48.612;8.088;2023-03-01T16:05:27;24.55;;;17.75;;
53670;SDS011;39571;48.612;8.088;2023-03-01T16:07:55;21.65;;;17.27;;
53670;SDS011;39571;48.612;8.088;2023-03-01T16:10:21;22.33;;;18.27;;
53670;SDS011;39571;48.612;8.088;2023-03-01T16:12:47;21.88;;;17.67;;
53670;SDS011;39571;48.612;8.088;2023-03-01T16:15:23;23.08;;;17.75;;
53670;SDS011;39571;48.612;8.088;2023-03-01T16:17:50;22.70;;;18.00;;
53670;SDS011;39571;48.612;8.088;2023-03-01T16:20:17;25.27;;;18.45;;
53670;SDS011;39571;48.612;8.088;2023-03-01T16:22:42;23.67;;;18.17;;
53670;SDS011;39571;48.612;8.088;2023-03-01T16:25:15;23.95;;;18.63;;
53670;SDS011;39571;48.612;8.088;2023-03-01T16:27:42;23.67;;;18.65;;
53670;SDS011;39571;48.612;8.088;2023-03-01T16:30:09;24.52;;;18.80;;
53670;SDS011;39571;48.612;8.088;2023-03-01T16:32:39;21.80;;;17.67;;
53670;SDS011;39571;48.612;8.088;2023-03-01T16:35:05;23.80;;;18.08;;
